Date,TemperatureHighF,TemperatureAvgF,TemperatureLowF,DewpointHighF,DewpointAvgF,DewpointLowF,HumidityHigh,HumidityAvg,HumidityLow,PressureMaxIn,PressureMinIn,WindSpeedMaxMPH,WindSpeedAvgMPH,GustSpeedMaxMPH,PrecipitationSumIn
2013-1-1,88,68,56,70,63,56,99,87,55,30.12,29.95,0,0,0,0.00
2013-1-2,85,67,55,76,64,54,99,92,68,30.00,29.90,0,0,0,0.00
2013-1-3,88,70,60,78,67,60,99,91,56,30.03,29.93,0,0,0,0.00
2013-1-4,87,71,63,78,70,62,99,96,71,30.15,30.02,0,0,0,0.00
2013-1-5,84,70,63,76,68,63,99,94,73,30.17,30.05,0,0,0,0.00
2013-1-6,88,71,62,79,69,61,99,94,68,30.09,29.95,0,0,0,0.00
2013-1-7,83,73,68,76,72,68,99,95,75,30.07,29.98,0,0,0,0.00
2013-1-8,89,75,68,79,72,68,99,91,63,30.10,29.99,0,0,0,0.00
2013-1-9,89,76,69,79,72,69,99,89,59,30.16,30.05,0,0,0,0.00
2013-1-10,90,74,65,77,70,65,99,88,53,30.19,30.07,0,0,0,0.00
2013-1-11,89,71,58,77,67,58,99,88,57,30.16,30.03,0,0,0,0.00
2013-1-12,88,72,60,78,68,60,99,90,61,30.09,29.96,0,0,0,0.00
2013-1-13,87,70,57,76,66,57,99,91,64,30.03,29.96,0,0,0,0.00
2013-1-14,88,69,56,73,64,56,99,86,56,30.08,30.01,0,0,0,0.00
2013-1-15,87,69,54,75,66,54,99,90,62,30.05,29.94,0,0,0,0.00
2013-1-16,90,70,53,76,65,53,99,87,55,30.02,29.91,0,0,0,0.00
2013-1-17,86,69,60,80,66,56,99,91,66,30.03,29.89,0,0,0,0.00
2013-1-18,73,59,50,60,54,44,99,83,58,30.21,30.03,0,0,0,0.00
2013-1-19,79,68,60,72,66,59,99,94,78,30.15,30.01,0,0,0,0.00
2013-1-20,82,70,65,74,68,64,99,94,67,30.07,29.93,0,0,0,0.00
2013-1-21,79,68,61,74,67,60,99,97,79,30.01,29.91,0,0,0,0.00
2013-1-22,76,64,55,62,58,51,99,82,60,30.16,29.95,0,0,0,0.00
2013-1-23,80,61,50,60,51,45,96,73,44,30.24,30.14,0,0,0,0.00
2013-1-24,83,59,45,59,49,45,99,76,33,30.23,30.12,0,0,0,0.00
2013-1-25,85,59,40,63,52,40,99,82,45,30.22,30.09,0,0,0,0.00
2013-1-26,87,60,43,60,52,43,99,79,34,30.19,30.07,0,0,0,0.00
2013-1-27,86,66,49,67,59,48,99,81,51,30.19,30.10,0,0,0,0.00
2013-1-28,87,70,58,72,64,58,99,83,55,30.22,30.11,0,0,0,0.00
2013-1-29,89,71,58,76,68,58,99,90,58,30.14,30.00,0,0,0,0.00
2013-1-30,88,72,63,75,69,63,99,89,61,30.02,29.87,0,0,0,0.00
2013-1-31,72,63,48,71,60,40,99,88,59,30.13,29.85,0,0,0,0.07
2013-2-1,77,55,39,54,44,38,99,71,34,30.22,30.12,0,0,0,0.00
2013-2-2,84,58,40,58,49,39,99,76,39,30.19,30.03,0,0,0,0.00
2013-2-3,79,58,45,55,47,40,99,73,27,30.12,29.99,0,0,0,0.00
2013-2-4,82,56,35,57,45,35,99,75,28,30.08,29.94,0,0,0,0.00
2013-2-5,88,63,42,66,56,42,99,80,48,30.00,29.91,0,0,0,0.00
2013-2-6,89,69,52,72,63,52,99,86,55,30.02,29.92,0,0,0,0.00
2013-2-7,88,70,55,74,64,55,99,86,53,29.99,29.84,0,0,0,0.00
2013-2-8,86,73,60,78,68,60,99,88,52,29.97,29.80,0,0,0,0.00
2013-2-9,87,69,55,72,64,54,99,86,56,30.07,29.96,0,0,0,0.00
2013-2-10,87,72,61,70,66,61,99,84,53,30.14,30.03,0,0,0,0.00
2013-2-11,89,71,56,74,67,56,99,88,59,30.12,29.99,0,0,0,0.00
2013-2-12,89,71,57,78,68,57,99,91,71,30.02,29.88,0,0,0,0.00
2013-2-13,90,75,61,83,72,61,99,92,66,29.91,29.82,0,0,0,0.00
2013-2-14,78,66,59,78,66,59,99,99,99,29.94,29.78,0,0,0,1.36
2013-2-15,69,63,59,69,63,59,99,99,99,29.97,29.85,0,0,0,0.14
2013-2-16,64,61,52,63,59,52,99,93,78,30.02,29.83,0,0,0,0.00
2013-2-17,64,51,34,52,35,28,99,59,33,30.25,30.02,0,0,0,0.00
2013-2-18,77,52,32,55,45,31,99,80,45,30.25,30.13,0,0,0,0.00
2013-2-19,83,64,47,70,60,46,99,88,66,30.12,30.00,0,0,0,0.00
2013-2-20,91,68,52,74,61,52,99,81,45,30.03,29.90,0,0,0,0.00
2013-2-21,73,69,66,73,69,65,99,99,99,30.00,29.99,0,0,0,0.00
2013-2-27,64,64,64,64,64,64,99,99,99,29.89,29.89,0,0,0,0.13
2013-2-28,64,64,64,63,63,63,99,99,99,29.88,29.87,0,0,0,0.00
2013-3-2,68,55,0,55,49,46,97,75,56,29.96,29.91,7,1,8,0.00
2013-3-3,68,53,43,55,49,43,99,88,52,30.07,29.89,16,2,16,0.02
2013-3-4,71,51,33,52,43,33,99,79,38,30.13,30.03,10,2,11,0.33
2013-3-5,82,58,35,64,51,35,99,82,48,30.09,30.00,8,2,11,0.00
2013-3-6,77,59,46,70,53,45,99,82,47,30.05,29.93,11,3,14,0.02
2013-3-7,71,54,38,51,45,37,99,75,41,30.13,30.01,10,3,11,0.00
2013-3-8,82,58,37,58,49,36,99,76,40,30.12,30.01,8,2,10,0.00
2013-3-9,82,62,39,61,52,39,99,73,38,30.11,30.01,11,2,11,0.00
2013-3-10,83,67,50,64,58,49,99,77,50,30.07,29.93,12,3,14,0.00
2013-3-11,86,69,53,70,63,53,99,84,57,30.02,29.83,10,3,14,0.00
2013-3-12,79,69,60,77,68,60,99,98,89,29.94,29.81,11,3,14,0.00
2013-3-13,79,64,49,60,53,46,99,74,35,30.17,29.94,16,3,16,0.00
2013-3-14,77,59,46,53,46,36,99,67,25,30.15,30.03,11,4,15,0.00
2013-3-15,79,58,41,50,44,38,99,68,26,30.19,30.05,12,3,15,0.00
2013-3-16,83,60,39,62,50,39,99,74,38,30.10,29.98,13,2,15,0.00
2013-3-17,86,64,45,68,58,44,99,83,54,30.05,29.91,8,2,11,0.00
2013-3-18,83,70,58,76,68,58,99,95,77,29.97,29.86,12,2,14,0.34
2013-3-19,88,72,61,77,70,61,99,93,69,29.93,29.77,8,2,10,0.01
2013-3-20,88,68,57,75,64,56,99,88,49,29.92,29.73,14,2,17,0.07
2013-3-21,80,66,49,64,58,49,99,78,42,29.88,29.76,10,2,11,0.01
2013-3-22,86,66,46,78,63,45,99,91,74,29.89,29.79,11,2,13,0.00
2013-3-23,90,78,66,82,73,66,99,87,62,29.87,29.72,12,3,17,0.00
2013-3-24,87,76,65,83,75,65,99,96,80,29.77,29.60,16,5,20,0.00
2013-3-25,83,72,54,76,61,37,99,71,34,29.95,29.66,8,3,12,0.00
2013-3-26,70,58,47,51,46,42,97,66,42,30.16,29.95,13,4,17,0.00
2013-3-27,71,60,44,49,44,38,99,59,34,30.20,30.10,13,4,13,0.00
2013-3-28,80,57,37,51,43,36,99,68,25,30.20,30.07,11,2,11,0.00
2013-3-29,83,60,38,55,46,37,99,68,33,30.22,30.09,11,2,12,0.00
2013-3-30,86,64,46,63,55,46,99,77,44,30.17,30.03,8,2,14,0.00
2013-3-31,88,69,49,70,62,48,99,82,50,30.12,29.92,11,2,12,0.00
2013-4-1,89,72,56,79,67,56,99,87,59,29.97,29.87,13,2,17,0.00
2013-4-2,92,73,60,78,68,60,99,86,57,30.00,29.90,6,2,10,0.00
2013-4-3,93,76,61,78,71,60,99,85,55,29.97,29.84,12,3,15,0.00
2013-4-4,88,72,66,81,71,65,99,96,81,29.94,29.80,15,4,17,0.59
2013-4-5,73,68,62,73,68,61,99,99,91,29.93,29.72,12,2,17,0.61
2013-4-6,84,69,58,69,64,58,99,85,59,30.00,29.87,11,4,13,0.01
2013-4-7,90,72,56,73,66,55,99,81,51,30.03,29.93,12,3,12,0.00
2013-4-8,92,76,59,73,67,59,99,78,48,30.03,29.91,12,2,12,0.00
2013-4-9,90,74,56,76,68,56,99,83,55,30.04,29.94,8,3,17,0.00
2013-4-10,93,73,62,80,71,62,99,94,63,30.01,29.86,8,1,11,0.00
2013-4-11,91,79,70,84,77,69,99,93,73,29.91,29.75,14,4,18,0.00
2013-4-12,93,81,74,85,77,74,99,91,65,29.84,29.77,13,3,17,0.70
2013-4-13,96,82,70,81,77,70,99,86,62,29.88,29.74,7,2,13,0.00
2013-4-14,95,80,67,85,76,67,99,89,68,29.87,29.74,17,3,17,0.00
2013-4-15,98,82,68,85,76,67,99,86,58,29.97,29.83,11,2,12,0.00
2013-4-16,96,81,68,82,76,68,99,87,58,30.02,29.91,13,4,13,0.00
2013-4-17,94,80,69,80,74,69,99,83,58,30.02,29.89,10,4,12,0.00
2013-4-18,96,81,66,82,75,66,99,85,59,29.95,29.83,10,3,13,0.00
2013-4-19,96,81,70,83,77,70,99,87,62,29.93,29.83,12,3,14,0.00
2013-4-20,95,79,66,86,75,66,99,89,61,30.00,29.85,13,2,14,0.00
2013-4-21,92,75,66,82,73,66,99,95,67,30.00,29.88,9,4,11,0.00
2013-4-22,90,75,68,81,74,68,99,94,70,29.97,29.83,8,2,10,0.00
2013-4-23,90,77,66,77,71,66,99,84,57,30.00,29.88,12,5,14,0.12
2013-4-24,92,73,58,74,68,58,99,85,55,30.04,29.97,10,2,11,0.00
2013-4-26,92,82,58,75,70,58,99,69,53,30.14,30.03,12,4,13,0.00
2013-4-27,91,76,59,75,67,59,99,77,51,30.11,29.95,12,3,16,0.00
2013-4-28,94,77,64,76,70,64,99,82,53,30.01,29.86,11,3,13,0.00
2013-4-29,94,74,60,79,70,60,99,91,61,29.93,29.83,8,2,11,0.18
2013-4-30,94,76,64,84,73,64,99,91,67,29.90,29.81,8,2,10,0.00
2013-5-1,86,72,64,83,71,64,99,98,87,29.90,29.80,16,2,16,0.35
2013-5-2,80,70,65,80,70,65,99,99,94,29.86,29.71,6,1,8,0.51
2013-5-3,90,76,63,81,72,63,99,88,64,29.75,29.60,11,2,12,0.00
2013-5-4,86,74,63,79,71,62,99,90,70,29.73,29.61,15,4,19,0.00
2013-5-5,85,74,58,71,66,58,99,78,50,29.88,29.70,14,3,14,0.00
2013-5-6,85,69,53,75,64,53,99,85,65,29.93,29.85,8,2,11,0.00
2013-5-7,85,71,55,72,65,55,99,82,61,29.99,29.90,12,2,17,0.00
2013-5-8,88,71,53,76,63,53,99,79,50,30.05,29.96,8,2,16,0.00
2013-5-9,95,73,51,75,65,51,99,79,47,30.05,29.96,8,2,10,0.00
2013-5-10,97,80,61,82,73,60,99,81,56,30.03,29.90,11,2,13,0.00
2013-5-11,96,80,65,85,76,65,99,87,61,29.97,29.89,10,2,14,0.00
2013-5-12,93,80,68,87,77,68,99,92,73,29.95,29.83,9,2,14,0.01
2013-5-13,92,79,65,80,74,64,99,84,63,30.01,29.91,7,2,11,0.00
2013-5-14,91,77,63,71,64,58,98,67,44,30.09,29.99,14,4,15,0.00
2013-5-15,91,73,54,71,64,54,99,76,49,30.10,29.97,11,3,11,0.00
2013-5-16,94,78,59,74,68,59,99,76,48,30.01,29.90,10,2,10,0.00
2013-5-17,96,80,61,79,70,61,99,76,48,29.99,29.92,7,2,11,0.00
2013-5-18,97,79,61,83,74,61,99,85,57,30.01,29.91,9,2,11,0.00
2013-5-19,96,79,66,82,74,66,99,87,58,30.00,29.86,8,2,16,0.26
2013-5-20,96,77,68,86,74,68,99,93,58,29.96,29.87,14,2,20,0.83
2013-5-21,95,77,68,84,75,68,99,93,66,29.91,29.80,8,2,13,0.33
2013-5-22,95,80,66,85,75,66,99,87,65,29.85,29.78,8,2,11,0.00
2013-5-23,94,80,66,85,75,65,99,86,64,29.92,29.82,8,2,11,0.00
2013-5-24,98,82,68,83,75,68,99,83,50,29.98,29.87,9,2,14,0.00
2013-5-25,94,80,64,82,73,64,99,82,57,30.06,29.94,11,4,13,0.00
2013-5-26,93,79,66,76,72,66,99,79,52,30.08,29.98,10,4,13,0.00
2013-5-27,91,78,64,81,74,64,99,88,71,30.06,29.92,14,4,15,0.00
2013-5-28,90,78,72,84,76,72,99,96,74,30.00,29.92,12,3,14,0.14
2013-5-29,86,76,71,83,75,71,99,98,88,29.99,29.90,13,4,15,0.40
2013-5-30,90,78,70,87,77,70,99,96,79,29.95,29.85,13,4,16,0.11
2013-5-31,94,78,72,86,77,71,99,96,77,29.94,29.89,11,2,11,0.74
2013-6-1,98,80,73,88,78,73,99,95,69,29.93,29.83,8,3,14,0.04
2013-6-2,96,81,71,87,78,70,99,91,66,29.91,29.82,9,2,12,0.05
2013-6-3,86,79,72,85,78,72,99,98,92,29.92,29.82,7,1,11,0.01
2013-6-4,84,77,72,84,77,72,99,99,99,29.94,29.86,5,1,11,0.35
2013-6-5,81,78,73,80,77,73,99,99,99,29.91,29.76,7,3,11,0.44
2013-6-6,86,77,73,85,77,73,99,99,93,29.77,29.65,15,4,19,2.31
2013-6-7,91,79,72,88,79,72,99,98,84,29.86,29.72,14,2,14,0.73
2013-6-8,99,84,77,86,81,77,99,92,66,30.00,29.91,8,2,8,0.01
2013-6-9,99,85,75,88,80,75,99,87,58,30.00,29.89,11,3,14,0.00
2013-6-10,100,84,73,88,81,73,99,90,63,29.98,29.88,8,2,9,0.00
2013-6-11,102,80,69,88,78,68,99,93,62,29.98,29.88,17,2,21,1.88
2013-6-12,98,79,71,90,78,71,99,96,68,29.98,29.89,8,2,19,0.02
2013-6-13,97,79,68,90,77,68,99,94,65,29.95,29.85,8,1,11,0.14
2013-6-14,94,82,70,91,79,70,99,90,70,29.88,29.79,10,2,12,0.00
2013-6-15,98,83,69,90,79,69,99,89,63,29.95,29.84,7,1,11,0.31
2013-6-16,99,85,72,89,81,72,99,90,65,29.99,29.90,7,2,8,0.01
2013-6-17,99,84,73,89,80,73,99,90,59,29.99,29.90,8,2,11,0.30
2013-6-18,102,87,72,90,82,72,99,87,61,29.96,29.88,8,2,12,0.04
2013-6-19,99,82,70,90,78,70,99,91,57,29.96,29.86,11,2,25,1.76
2013-6-20,96,82,70,90,79,70,99,92,65,30.00,29.92,8,2,11,0.01
2013-6-21,98,81,69,87,77,69,99,89,64,30.01,29.93,8,1,11,0.04
2013-6-22,99,82,69,87,78,68,99,90,60,30.01,29.92,7,2,10,0.05
2013-6-23,96,81,70,87,79,70,99,94,68,30.03,29.95,6,2,10,0.00
2013-6-24,97,82,71,86,79,71,99,91,67,30.06,29.96,8,2,14,0.01
2013-6-25,97,83,71,86,79,71,99,89,68,30.03,29.91,14,2,14,0.01
2013-6-26,96,79,72,89,78,72,99,97,78,29.98,29.91,11,2,17,0.73
2013-6-27,98,81,71,89,78,71,99,92,67,29.95,29.87,8,2,9,0.01
2013-6-28,96,84,70,90,81,70,99,93,70,29.90,29.77,5,0,9,0.30
2013-6-29,97,84,72,89,80,72,99,89,69,29.82,29.73,9,2,11,0.00
2013-6-30,93,81,74,89,80,73,99,97,81,29.84,29.74,14,2,14,1.46
2013-7-1,92,76,71,89,76,71,99,98,88,29.93,29.79,13,2,13,2.80
2013-7-2,96,79,73,90,78,72,99,97,79,30.00,29.86,8,2,11,0.74
2013-7-3,91,77,72,88,77,72,99,98,86,30.03,29.94,10,2,14,0.65
2013-7-4,94,81,72,88,79,71,99,95,69,30.04,29.95,7,2,14,0.08
2013-7-5,92,79,73,86,78,72,99,96,81,30.03,29.94,15,2,17,0.32
2013-7-6,98,82,74,89,79,74,99,92,63,30.00,29.89,8,2,11,0.02
2013-7-7,95,84,74,89,81,74,99,91,68,29.99,29.91,19,3,19,0.12
2013-7-8,99,87,77,87,82,76,99,87,59,30.05,29.96,8,1,11,0.01
2013-7-9,93,80,71,87,78,71,99,94,72,30.04,29.95,14,2,14,0.38
2013-7-10,94,80,70,88,77,70,99,93,71,29.99,29.90,1,0,2,0.08
2013-7-11,74,74,74,74,73,73,99,99,99,29.94,29.94,0,0,0,0.00
2013-7-12,97,85,73,89,81,72,99,89,71,29.86,29.79,0,0,1,0.44
2013-7-13,93,77,71,89,77,71,99,98,81,29.90,29.81,7,1,20,0.97
2013-7-14,88,77,73,87,77,73,99,98,86,30.00,29.87,7,1,10,0.08
2013-7-15,96,79,72,85,76,71,99,92,64,29.99,29.94,2,0,2,0.00
2013-7-27,77,76,75,77,75,74,99,99,99,29.90,29.89,0,0,1,0.00
2013-7-28,102,84,71,93,79,71,99,87,62,29.97,29.85,11,1,15,0.00
2013-7-29,99,78,71,89,76,71,99,95,63,30.04,29.93,14,1,17,1.76
2013-7-30,97,82,73,91,81,73,99,97,73,30.06,29.97,11,1,13,0.01
2013-7-31,97,80,73,90,79,73,99,95,73,30.01,29.90,7,0,8,1.12
2013-8-1,96,79,72,88,77,72,99,94,71,29.96,29.81,5,1,11,0.58
2013-8-2,98,84,71,90,81,71,99,91,67,29.96,29.84,0,0,1,0.01
2013-8-3,98,80,75,91,80,75,99,98,76,30.03,29.92,1,0,1,0.00
2013-8-4,97,84,75,95,83,75,99,96,81,30.01,29.91,0,0,0,0.14
2013-8-5,98,84,75,94,82,75,99,95,76,29.95,29.85,5,0,9,0.32
2013-8-6,100,84,75,93,82,75,99,93,66,29.89,29.80,6,1,7,0.02
2013-8-7,77,76,75,77,76,74,99,99,99,29.86,29.82,0,0,0,0.30
2013-8-8,100,84,74,90,80,74,99,89,60,29.91,29.81,8,2,11,0.08
2013-8-9,96,80,73,89,79,72,99,96,70,29.96,29.85,0,0,0,0.12
2013-8-10,98,85,72,91,80,72,99,87,61,30.01,29.92,0,0,0,0.01
2013-8-12,99,88,73,87,82,73,99,83,61,29.99,29.89,0,0,0,0.04
2013-8-13,99,85,73,90,81,72,99,90,65,29.95,29.83,0,0,0,0.02
2013-8-17,99,82,76,86,81,76,99,96,66,29.97,29.87,0,0,0,0.00
2013-8-18,97,83,74,90,81,74,99,94,71,29.99,29.86,0,0,0,0.21
2013-8-19,98,80,72,90,78,72,99,95,68,29.99,29.85,0,0,3,0.72
2013-8-20,95,82,72,90,80,72,99,96,76,29.96,29.88,0,0,0,0.02
2013-8-21,94,82,76,90,80,76,99,97,82,29.97,29.87,0,0,0,0.51
2013-8-22,100,83,74,91,80,74,99,93,63,29.96,29.84,0,0,0,0.65
2013-8-23,96,79,73,92,78,73,99,98,81,29.91,29.84,0,0,0,0.50
2013-8-24,99,82,73,91,79,73,99,94,68,30.03,29.88,0,0,1,0.22
2013-8-25,94,80,74,89,80,74,99,98,85,30.04,29.92,0,0,0,0.06
2013-8-26,97,79,70,89,78,70,99,95,67,30.01,29.89,1,0,2,0.58
2013-8-27,95,78,70,87,77,70,99,96,74,29.95,29.88,0,0,0,0.09
2013-8-28,95,79,72,84,77,71,99,94,69,29.94,29.86,1,0,2,0.33
2013-8-29,82,73,71,82,73,71,99,99,99,29.94,29.88,0,0,0,0.00
2013-8-30,98,82,71,90,80,71,99,93,67,29.91,29.79,0,0,0,0.61
2013-8-31,97,82,71,90,79,71,99,92,70,29.89,29.81,0,0,0,0.00
2013-9-1,99,83,73,90,80,73,99,92,68,29.91,29.83,0,0,0,0.15
2013-9-2,96,77,72,91,76,72,99,98,82,29.94,29.84,0,0,1,1.69
2013-9-3,97,82,70,90,79,70,99,92,65,29.93,29.84,0,0,0,0.00
2013-9-4,94,80,74,90,79,74,99,98,82,29.96,29.85,0,0,0,0.04
2013-9-5,98,83,75,90,81,75,99,94,69,29.98,29.89,0,0,0,0.01
2013-9-6,98,84,72,90,80,72,99,90,69,29.98,29.80,0,0,1,2.86
2013-9-7,95,81,74,88,80,73,99,95,77,29.90,29.83,0,0,0,0.02
2013-9-8,95,79,71,86,77,71,99,94,69,29.86,29.75,0,0,0,0.00
2013-9-9,96,81,72,87,78,72,99,94,68,29.90,29.80,0,0,0,0.01
2013-9-10,94,82,72,87,80,72,99,93,73,29.94,29.86,0,0,0,0.01
2013-9-11,91,80,74,87,79,74,99,97,82,29.93,29.87,2,0,2,0.00
2013-9-12,92,81,74,88,80,73,99,97,82,29.92,29.78,1,0,1,0.00
2013-9-13,97,83,70,88,78,69,99,88,67,29.81,29.70,7,0,7,0.09
2013-9-14,100,84,71,91,80,71,99,89,61,29.86,29.73,6,1,8,0.00
2013-9-15,95,78,73,89,77,72,99,97,78,29.96,29.83,10,2,17,0.85
2013-9-16,93,79,74,88,79,74,99,98,84,29.93,29.85,11,2,17,0.28
2013-9-17,91,77,74,89,77,74,99,99,89,29.93,29.82,8,2,11,0.58
2013-9-18,96,79,73,88,78,73,99,97,74,29.92,29.83,6,2,9,0.85
2013-9-19,96,80,70,89,79,70,99,96,74,29.92,29.84,7,2,15,0.00
2013-9-20,93,82,73,84,78,73,99,89,68,29.91,29.79,8,2,11,0.00
2013-9-21,95,80,69,86,77,69,99,93,69,29.83,29.67,8,1,8,0.20
2013-9-22,95,81,70,88,79,70,99,94,75,29.77,29.67,8,2,13,0.01
2013-9-23,89,80,74,89,80,74,99,99,99,29.87,29.75,7,1,8,0.11
2013-9-24,78,78,76,78,77,76,99,99,99,29.85,29.82,4,1,4,0.00
2013-9-26,91,82,76,89,82,76,99,98,92,29.77,29.72,12,2,12,0.46
2013-9-27,93,80,72,86,77,72,99,91,66,29.83,29.73,7,2,9,0.00
2013-9-28,94,80,70,86,77,70,99,92,68,29.87,29.77,9,2,14,0.00
2013-9-29,93,80,70,85,78,70,99,93,72,29.88,29.76,8,2,11,0.00
2013-9-30,97,79,68,85,76,67,99,91,62,29.91,29.78,8,1,10,0.71
2013-10-1,96,81,70,88,78,70,99,92,70,29.93,29.83,11,2,11,0.01
2013-10-2,95,80,74,87,79,74,99,95,78,29.93,29.83,11,3,14,0.01
2013-10-3,93,78,73,88,78,73,99,97,81,29.94,29.84,11,1,16,1.33
2013-10-4,94,80,72,87,78,72,99,94,73,29.97,29.87,4,1,8,0.00
2013-10-5,95,82,72,84,78,72,99,87,61,29.95,29.82,8,2,9,0.00
2013-10-6,97,80,69,87,77,68,99,92,67,29.88,29.77,6,1,8,0.00
2013-10-7,92,80,71,89,79,70,99,97,83,29.80,29.71,9,2,14,0.05
2013-10-8,91,79,69,91,77,68,99,94,77,29.85,29.75,8,2,11,0.01
2013-10-9,92,78,69,85,77,69,99,96,76,29.91,29.82,10,2,10,0.00
2013-10-10,92,78,68,82,75,68,99,91,70,29.94,29.83,10,2,10,0.00
2013-10-11,93,77,64,82,72,64,99,87,59,29.93,29.83,9,2,9,0.00
2013-10-12,93,76,62,82,72,62,99,88,60,29.94,29.85,8,2,8,0.00
2013-10-13,90,77,68,84,74,67,99,90,67,29.96,29.85,7,2,9,0.00
2013-10-14,91,75,65,80,71,64,99,89,63,29.93,29.80,8,2,12,0.00
2013-10-15,92,77,66,82,73,66,99,88,60,29.89,29.76,10,2,11,0.00
2013-10-16,95,78,64,84,74,64,99,89,60,29.86,29.77,6,1,8,0.00
2013-10-17,96,79,66,84,76,65,99,91,66,29.88,29.78,6,1,10,0.00
2013-10-18,95,80,66,86,76,66,99,90,63,29.88,29.78,8,1,9,0.00
2013-10-19,96,80,68,87,78,68,99,92,70,29.86,29.75,9,1,11,0.00
2013-10-20,96,81,70,89,78,70,99,93,71,29.86,29.77,6,1,8,0.00
2013-10-21,95,80,69,90,79,69,99,96,80,29.90,29.80,6,1,10,0.02
2013-10-22,95,81,70,89,79,70,99,94,75,29.87,29.74,9,2,11,0.14
2013-10-23,91,78,71,87,76,69,99,95,78,29.88,29.73,10,2,11,0.09
2013-10-24,78,71,68,72,68,63,99,89,77,30.03,29.87,10,4,13,0.00
2013-10-25,84,72,64,75,69,63,99,90,69,30.10,30.00,11,4,17,0.00
2013-10-26,88,72,62,75,67,62,99,88,59,30.08,29.95,9,3,12,0.00
2013-10-27,87,71,60,74,66,59,99,87,57,30.01,29.92,8,2,9,0.00
2013-10-28,89,72,59,77,68,59,99,89,61,30.07,29.96,9,2,13,0.00
2013-10-29,90,74,62,80,71,62,99,90,70,30.10,29.98,11,3,13,0.00
2013-10-30,89,74,63,79,70,63,99,88,62,30.09,29.95,11,3,17,0.01
2013-10-31,93,75,61,81,71,61,99,89,61,30.01,29.87,8,2,12,0.00
2013-11-1,93,75,63,85,72,62,99,91,66,29.92,29.78,11,1,11,0.00
2013-11-2,93,78,65,83,75,65,99,92,70,29.86,29.73,8,2,11,0.00
2013-11-3,85,72,63,70,63,57,99,77,47,29.97,29.84,14,5,20,0.00
2013-11-4,85,72,61,76,68,60,99,89,67,30.00,29.93,14,6,17,0.00
2013-11-5,88,76,69,81,74,68,99,93,70,29.98,29.90,16,6,21,0.00
2013-11-6,91,78,66,81,75,66,99,92,72,29.97,29.87,10,3,15,0.00
2013-11-7,90,74,65,82,72,64,99,93,67,29.95,29.83,6,2,9,0.00
2013-11-8,88,75,63,80,73,63,99,93,74,29.96,29.86,14,5,18,0.00
2013-11-9,84,75,70,83,74,70,99,99,98,30.01,29.93,13,5,16,0.06
2013-11-10,88,78,71,82,76,71,99,93,75,30.03,29.93,11,4,14,0.00
2013-11-11,89,77,67,81,74,67,99,93,72,30.03,29.92,10,3,12,0.00
2013-11-12,89,75,63,81,72,62,99,92,67,30.00,29.86,8,2,11,0.00
2013-11-13,74,69,61,72,66,58,99,90,80,30.13,29.93,17,8,21,0.00
2013-11-14,82,68,56,69,63,55,99,86,60,30.14,30.03,13,4,19,0.00
2013-11-15,88,74,64,78,72,63,99,93,72,30.05,29.91,10,4,12,0.00
2013-11-16,83,73,70,82,73,70,99,99,94,29.99,29.91,5,2,8,0.02
2013-11-17,73,70,68,73,70,68,99,99,99,29.96,29.91,0,0,2,0.00
2013-11-18,93,75,63,84,73,63,99,94,68,29.94,29.82,4,1,8,0.00
2013-11-19,91,75,67,83,73,66,99,94,72,29.86,29.75,6,1,7,0.00
2013-11-20,93,76,66,82,74,66,99,94,70,29.96,29.83,6,2,7,0.00
2013-11-21,89,78,70,84,76,70,99,95,79,30.03,29.94,4,2,9,0.00
2013-11-22,89,79,67,82,76,67,99,91,77,30.05,29.95,10,4,13,0.00
2013-11-23,91,74,64,82,72,64,99,95,73,30.00,29.86,8,2,10,0.34
2013-11-24,84,72,65,79,71,65,99,97,84,30.06,29.91,12,4,16,0.00
2013-11-25,83,72,65,74,70,65,99,93,70,30.08,29.95,11,6,17,0.00
2013-11-26,90,77,71,84,76,70,99,97,79,29.94,29.71,14,4,16,0.50
2013-11-27,79,71,56,74,68,56,99,92,70,30.06,29.69,17,4,22,0.06
2013-11-28,74,58,43,63,54,42,99,89,65,30.19,30.06,11,5,16,0.00
2013-11-29,81,66,55,71,62,54,99,89,72,30.19,30.08,15,7,18,0.00
2013-12-1,68,67,66,68,67,65,99,99,99,29.93,29.89,5,3,8,0.00
2013-12-2,82,68,61,75,67,61,99,95,69,29.89,29.73,6,2,9,0.00
2013-12-3,86,68,58,76,66,58,99,94,74,29.90,29.81,8,1,10,0.00
2013-12-4,88,72,58,81,69,58,99,93,73,29.99,29.88,7,1,8,0.00
2013-12-5,90,73,58,80,70,58,99,91,67,30.06,29.95,14,2,14,0.00
2013-12-6,91,78,62,83,75,61,99,89,70,30.08,29.97,9,3,11,0.00
2013-12-7,90,72,57,81,69,56,99,92,69,30.13,30.01,8,2,8,0.00
2013-12-8,90,75,63,80,72,63,99,90,66,30.10,29.99,9,2,11,0.00
2013-12-12,75,68,59,75,66,54,99,94,79,30.16,30.06,12,6,13,0.00
2013-12-13,84,67,51,74,64,51,99,91,71,30.13,29.98,11,4,15,0.00
2013-12-14,90,75,63,82,74,63,99,95,75,30.00,29.85,11,2,12,0.00
2013-12-15,82,73,67,82,73,67,99,99,99,29.99,29.84,5,1,9,0.12
2013-12-16,78,66,55,70,64,55,99,93,74,30.09,29.98,8,3,11,0.00
2013-12-17,84,63,48,73,60,48,99,92,69,30.12,30.00,11,2,11,0.00
2013-12-18,80,60,46,66,54,45,99,82,40,30.17,30.07,14,3,14,0.00
2013-12-19,84,63,45,71,59,45,99,87,63,30.14,30.03,12,3,13,0.00
2013-12-20,83,64,56,79,63,56,99,98,87,30.07,30.03,12,2,12,0.00